Time;durP1;ratioP1;P1;durP2;ratioP2;P2;SDS_P1;SDS_P2;PMS_P1;PMS_P2;Temp;Humidity;BMP_temperature;BMP_pressure;BME280_temperature;BME280_humidity;BME280_pressure;Samples;Min_cycle;Max_cycle;Signal;HPM_P1;HPM_P2
2022/01/09 00:02:05;;;;;;;8.90;5.32;;;;;;;3.76;nan;98786.84;10410641;28;20084;-84
2022/01/09 00:07:07;;;;;;;15.48;6.63;;;;;;;3.78;nan;98787.75;10427311;28;20049;-85
2022/01/09 00:12:09;;;;;;;12.18;6.32;;;;;;;3.77;nan;98775.84;10399547;28;20544;-84
2022/01/09 00:17:11;;;;;;;14.00;7.40;;;;;;;3.72;nan;98780.00;10403396;28;20052;-85
2022/01/09 00:22:14;;;;;;;18.40;8.05;;;;;;;3.72;nan;98774.91;10407800;28;20107;-86
2022/01/09 00:27:18;;;;;;;13.80;7.82;;;;;;;3.79;nan;98778.44;10410373;28;20415;-85
2022/01/09 00:32:20;;;;;;;16.75;8.02;;;;;;;3.76;nan;98789.38;10382652;28;20433;-84
2022/01/09 00:37:22;;;;;;;24.70;9.80;;;;;;;3.76;nan;98781.75;10410052;28;20479;-85
2022/01/09 00:42:24;;;;;;;15.50;8.68;;;;;;;3.80;nan;98775.91;10414596;28;20041;-85
2022/01/09 00:47:25;;;;;;;23.95;10.45;;;;;;;3.79;nan;98761.44;10413017;28;20045;-85
2022/01/09 00:52:27;;;;;;;15.75;8.13;;;;;;;3.83;nan;98776.81;10372239;28;20057;-85
2022/01/09 00:57:29;;;;;;;20.45;11.85;;;;;;;3.82;nan;98778.47;10425648;28;20463;-85
2022/01/09 01:02:33;;;;;;;21.92;10.60;;;;;;;3.81;nan;98776.75;10420180;28;20052;-86
2022/01/09 01:07:35;;;;;;;20.48;10.30;;;;;;;3.91;nan;98782.91;10409706;28;20471;-86
2022/01/09 01:12:37;;;;;;;19.52;10.05;;;;;;;3.86;nan;98787.91;10414164;28;20411;-85
2022/01/09 01:17:39;;;;;;;21.25;10.35;;;;;;;3.91;nan;98800.72;10376461;28;20048;-86
2022/01/09 01:22:41;;;;;;;15.55;8.02;;;;;;;3.95;nan;98807.59;10414232;28;20041;-85
2022/01/09 01:27:44;;;;;;;18.73;8.35;;;;;;;3.99;nan;98846.72;10408449;28;20046;-85
2022/01/09 01:32:46;;;;;;;11.45;7.40;;;;;;;4.04;nan;98840.91;10407949;28;20132;-86
2022/01/09 01:37:47;;;;;;;14.77;8.07;;;;;;;4.07;nan;98840.94;10425468;28;20049;-87
2022/01/09 01:42:49;;;;;;;13.15;7.50;;;;;;;4.08;nan;98859.66;10375313;28;20095;-86
2022/01/09 01:47:53;;;;;;;9.35;6.30;;;;;;;4.17;nan;98861.50;10414039;28;20037;-86
2022/01/09 01:52:57;;;;;;;10.68;7.53;;;;;;;4.03;nan;98862.09;10415987;28;20041;-86
2022/01/09 01:57:59;;;;;;;10.93;7.10;;;;;;;4.12;nan;98875.03;10393929;28;20079;-86
2022/01/09 02:03:01;;;;;;;11.57;8.10;;;;;;;4.01;nan;98879.03;10398712;28;20659;-86
2022/01/09 02:08:05;;;;;;;9.40;6.13;;;;;;;4.15;nan;98889.50;10411660;28;20104;-86
2022/01/09 02:13:09;;;;;;;14.88;8.25;;;;;;;4.23;nan;98892.19;10389820;28;20037;-86
2022/01/09 02:18:17;;;;;;;15.85;10.98;;;;;;;4.11;nan;98903.88;10410916;28;20037;-85
2022/01/09 02:23:21;;;;;;;8.38;4.75;;;;;;;4.31;nan;98918.69;10417142;28;20026;-85
2022/01/09 02:28:23;;;;;;;7.80;5.45;;;;;;;4.33;nan;98937.44;10401039;28;20410;-85
2022/01/09 02:33:26;;;;;;;6.03;4.47;;;;;;;4.35;nan;98930.69;10397831;28;20033;-83
2022/01/09 02:38:28;;;;;;;2.40;1.40;;;;;;;4.33;nan;98940.00;10400870;28;20057;-85
2022/01/09 02:43:30;;;;;;;3.65;1.85;;;;;;;4.42;nan;98958.03;10433779;28;20128;-84
2022/01/09 02:48:35;;;;;;;0.43;0.32;;;;;;;4.42;nan;98972.44;10394604;28;20076;-86
2022/01/09 02:53:38;;;;;;;1.52;0.70;;;;;;;4.50;nan;98976.00;10413428;28;20033;-87
2022/01/09 02:58:41;;;;;;;3.35;1.00;;;;;;;4.60;nan;98982.13;10395108;28;20068;-86
2022/01/09 03:03:45;;;;;;;1.83;0.55;;;;;;;4.62;nan;99007.69;10435002;28;20080;-86
2022/01/09 03:08:47;;;;;;;2.45;0.65;;;;;;;4.70;nan;99024.84;10390115;28;20515;-86
2022/01/09 03:13:49;;;;;;;2.65;0.80;;;;;;;4.76;nan;99036.88;10396854;28;20200;-86
2022/01/09 03:18:51;;;;;;;2.78;0.57;;;;;;;4.69;nan;99041.00;10416263;28;20068;-87
2022/01/09 03:23:52;;;;;;;5.05;0.52;;;;;;;4.73;nan;99050.41;10411086;28;20030;-86
2022/01/09 03:28:54;;;;;;;4.88;0.80;;;;;;;4.88;nan;99039.66;10400745;28;20041;-86
2022/01/09 03:33:56;;;;;;;12.68;1.33;;;;;;;4.96;nan;99044.03;10395263;28;20056;-85
2022/01/09 03:38:58;;;;;;;12.93;1.48;;;;;;;4.99;nan;99059.44;10394331;28;20115;-85
2022/01/09 03:43:59;;;;;;;7.50;1.35;;;;;;;5.03;nan;99077.34;10390734;28;20508;-85
2022/01/09 03:49:02;;;;;;;15.98;1.85;;;;;;;5.16;nan;99080.16;10410735;28;20148;-86
2022/01/09 03:54:05;;;;;;;19.27;2.17;;;;;;;5.23;nan;99097.31;10396955;28;20498;-84
2022/01/09 03:59:07;;;;;;;18.55;3.00;;;;;;;5.30;nan;99104.25;10395450;28;20084;-84
2022/01/09 04:04:11;;;;;;;27.02;3.45;;;;;;;5.45;nan;99110.44;10392670;28;20059;-84
2022/01/09 04:09:38;;;;;;;24.45;3.47;;;;;;;5.52;nan;99125.91;10391272;28;20468;-85
2022/01/09 04:14:41;;;;;;;22.27;3.40;;;;;;;5.51;nan;99133.53;10374928;28;20041;-84
2022/01/09 04:19:44;;;;;;;26.10;3.30;;;;;;;5.51;nan;99148.88;10409321;28;20040;-85
2022/01/09 04:24:46;;;;;;;30.00;4.05;;;;;;;5.50;nan;99171.00;10410251;28;20095;-86
2022/01/09 04:29:48;;;;;;;34.47;3.53;;;;;;;5.52;nan;99176.13;10408937;28;20056;-85
2022/01/09 04:34:50;;;;;;;23.80;3.17;;;;;;;5.43;nan;99201.50;10410953;28;20120;-85
2022/01/09 04:39:53;;;;;;;34.00;3.55;;;;;;;5.42;nan;99215.09;10415904;28;20040;-86
2022/01/09 04:44:55;;;;;;;24.42;2.90;;;;;;;5.38;nan;99230.38;10410926;28;20455;-86
2022/01/09 04:49:58;;;;;;;10.48;1.73;;;;;;;5.29;nan;99237.84;10415517;28;20057;-84
2022/01/09 04:55:01;;;;;;;16.40;2.30;;;;;;;5.21;nan;99270.03;10409786;28;20038;-85
2022/01/09 05:00:07;;;;;;;17.38;1.90;;;;;;;4.95;nan;99270.34;10404783;28;20415;-86
2022/01/09 05:05:09;;;;;;;8.45;1.05;;;;;;;4.89;nan;99291.47;10402916;28;20508;-88
2022/01/09 05:10:12;;;;;;;13.25;1.80;;;;;;;4.90;nan;99297.41;10375038;28;20053;-85
2022/01/09 05:15:15;;;;;;;13.07;1.50;;;;;;;4.94;nan;99309.44;10408540;28;20104;-85
2022/01/09 05:20:17;;;;;;;16.05;2.10;;;;;;;5.05;nan;99318.19;10374340;28;20091;-86
2022/01/09 05:25:21;;;;;;;8.40;1.70;;;;;;;5.02;nan;99338.56;10396311;28;20048;-85
2022/01/09 05:30:24;;;;;;;12.98;1.98;;;;;;;5.02;nan;99353.00;10421636;28;20042;-86
2022/01/09 05:35:25;;;;;;;14.40;2.20;;;;;;;5.05;nan;99359.03;10417757;28;20037;-86
2022/01/09 05:40:27;;;;;;;12.13;2.33;;;;;;;5.08;nan;99379.53;10410775;28;20125;-86
2022/01/09 05:45:29;;;;;;;21.95;2.50;;;;;;;5.02;nan;99389.59;10416119;28;20120;-85
2022/01/09 05:50:31;;;;;;;16.02;2.75;;;;;;;5.05;nan;99389.66;10416272;28;20041;-87
2022/01/09 05:55:33;;;;;;;24.58;2.80;;;;;;;5.05;nan;99404.13;10390383;28;20049;-85
2022/01/09 06:00:35;;;;;;;23.45;2.58;;;;;;;4.99;nan;99414.19;10431505;28;20064;-84
2022/01/09 06:05:38;;;;;;;17.05;2.45;;;;;;;5.02;nan;99415.13;10382726;28;20481;-85
2022/01/09 06:10:39;;;;;;;20.33;2.95;;;;;;;5.01;nan;99428.72;10408667;28;20042;-86
2022/01/09 06:15:41;;;;;;;20.35;2.75;;;;;;;5.04;nan;99449.19;10436478;28;20042;-85
2022/01/09 06:20:43;;;;;;;22.90;2.97;;;;;;;4.95;nan;99449.00;10396858;28;20059;-86
2022/01/09 06:25:48;;;;;;;22.65;2.45;;;;;;;4.94;nan;99447.25;10414361;28;20030;-85
2022/01/09 06:30:50;;;;;;;19.45;4.53;;;;;;;5.00;nan;99457.63;10427999;28;20041;-85
2022/01/09 06:35:52;;;;;;;26.00;2.85;;;;;;;5.01;nan;99472.09;10414093;28;20038;-85
2022/01/09 06:40:54;;;;;;;21.92;3.17;;;;;;;4.86;nan;99474.25;10380707;28;20060;-87
2022/01/09 06:45:56;;;;;;;15.40;2.22;;;;;;;4.84;nan;99483.56;10412322;28;20041;-86
2022/01/09 06:50:58;;;;;;;13.95;2.60;;;;;;;4.76;nan;99494.44;10421550;28;20052;-86
2022/01/09 06:56:02;;;;;;;19.48;3.17;;;;;;;4.70;nan;99509.59;10395651;28;20049;-86
2022/01/09 07:01:05;;;;;;;21.38;2.92;;;;;;;4.74;nan;99528.38;10419171;28;20045;-86
2022/01/09 07:06:07;;;;;;;19.27;2.88;;;;;;;4.75;nan;99533.53;10396118;28;20501;-86
2022/01/09 07:11:09;;;;;;;18.92;2.97;;;;;;;4.64;nan;99547.69;10427503;28;20061;-85
2022/01/09 07:16:11;;;;;;;16.58;2.10;;;;;;;4.68;nan;99554.59;10393419;28;20056;-87
2022/01/09 07:21:13;;;;;;;10.00;1.58;;;;;;;4.62;nan;99568.88;10394748;28;20048;-85
2022/01/09 07:26:19;;;;;;;21.40;2.92;;;;;;;4.53;nan;99577.09;10406491;28;20425;-86
2022/01/09 07:31:23;;;;;;;13.48;2.20;;;;;;;4.40;nan;99594.59;10411485;28;20038;-85
2022/01/09 07:36:28;;;;;;;16.88;2.70;;;;;;;4.52;nan;99606.88;10427746;28;20045;-85
2022/01/09 07:41:30;;;;;;;23.95;2.65;;;;;;;4.54;nan;99617.09;10423100;28;20039;-85
2022/01/09 07:46:34;;;;;;;10.68;2.03;;;;;;;4.65;nan;99628.50;10407638;28;20065;-84
2022/01/09 07:51:37;;;;;;;20.63;2.58;;;;;;;4.63;nan;99635.22;10382077;28;20450;-85
2022/01/09 07:56:52;;;;;;;16.48;2.15;;;;;;;4.45;nan;99650.84;10395540;28;20059;-85
2022/01/09 08:01:54;;;;;;;18.25;2.50;;;;;;;4.43;nan;99663.53;10389502;28;20050;-84
2022/01/09 08:07:01;;;;;;;18.15;2.75;;;;;;;4.38;nan;99667.63;10412335;28;20061;-85
2022/01/09 08:12:03;;;;;;;18.75;2.47;;;;;;;4.39;nan;99682.13;10391448;28;20439;-85
2022/01/09 08:17:07;;;;;;;16.35;2.85;;;;;;;4.47;nan;99691.69;10427064;28;20531;-85
2022/01/09 08:22:09;;;;;;;17.65;2.70;;;;;;;4.39;nan;99697.44;10396032;28;20092;-85
2022/01/09 08:27:11;;;;;;;16.52;2.20;;;;;;;4.36;nan;99704.97;10394419;28;20041;-83
2022/01/09 08:32:14;;;;;;;15.70;3.00;;;;;;;4.33;nan;99707.44;10422903;28;20038;-85
2022/01/09 08:37:16;;;;;;;9.88;1.95;;;;;;;4.27;nan;99712.34;10426172;28;20049;-84
2022/01/09 08:42:17;;;;;;;8.00;1.90;;;;;;;4.34;nan;99711.72;10412515;28;20049;-84
2022/01/09 08:47:19;;;;;;;10.88;2.33;;;;;;;4.37;nan;99718.59;10426282;28;20049;-84
2022/01/09 08:52:21;;;;;;;11.55;2.28;;;;;;;4.36;nan;99721.97;10393418;28;20038;-83
2022/01/09 08:57:25;;;;;;;18.95;3.42;;;;;;;4.42;nan;99730.69;10412962;28;20037;-84
2022/01/09 09:02:26;;;;;;;10.48;2.90;;;;;;;4.56;nan;99740.47;10405068;28;20095;-83
2022/01/09 09:07:28;;;;;;;10.75;2.05;;;;;;;4.66;nan;99762.88;10397856;28;20687;-83
2022/01/09 09:12:31;;;;;;;7.22;2.60;;;;;;;4.70;nan;99768.94;10407055;28;20060;-85
2022/01/09 09:17:33;;;;;;;13.02;2.75;;;;;;;4.68;nan;99763.78;10387263;28;20053;-84
2022/01/09 09:22:36;;;;;;;12.05;2.38;;;;;;;4.60;nan;99778.00;10407888;28;20048;-83
2022/01/09 09:27:37;;;;;;;11.13;2.40;;;;;;;4.62;nan;99794.22;10416558;28;20045;-83
2022/01/09 09:32:39;;;;;;;16.42;2.30;;;;;;;4.70;nan;99810.66;10415592;28;20042;-82
2022/01/09 09:37:41;;;;;;;12.48;2.63;;;;;;;4.65;nan;99822.41;10401216;28;20072;-83
2022/01/09 09:42:45;;;;;;;11.30;2.30;;;;;;;4.61;nan;99825.66;10407780;28;20052;-84
2022/01/09 09:47:47;;;;;;;13.90;2.92;;;;;;;4.58;nan;99826.41;10404850;28;20314;-83
2022/01/09 09:52:49;;;;;;;14.07;2.30;;;;;;;4.63;nan;99838.44;10414120;28;20515;-83
2022/01/09 09:57:51;;;;;;;19.98;2.65;;;;;;;4.60;nan;99839.22;10416983;28;20092;-83
2022/01/09 10:02:57;;;;;;;16.77;2.15;;;;;;;4.72;nan;99852.41;10378611;28;20443;-83
2022/01/09 10:08:08;;;;;;;8.52;2.65;;;;;;;4.91;nan;99850.41;10408527;28;20059;-84
2022/01/09 10:13:17;;;;;;;12.30;1.95;;;;;;;4.93;nan;99864.97;10424292;28;20136;-83
2022/01/09 10:18:36;;;;;;;11.77;2.78;;;;;;;5.29;nan;99873.72;10410241;28;20049;-82
2022/01/09 10:23:56;;;;;;;9.25;2.80;;;;;;;5.26;nan;99876.19;10415940;28;20087;-83
2022/01/09 10:28:59;;;;;;;10.15;2.20;;;;;;;5.09;nan;99880.75;10406924;28;20049;-84
2022/01/09 10:34:08;;;;;;;12.10;2.38;;;;;;;4.91;nan;99881.03;10430762;28;20033;-84
2022/01/09 10:39:16;;;;;;;11.95;2.15;;;;;;;4.93;nan;99880.28;10414571;28;20037;-84
2022/01/09 10:44:27;;;;;;;12.65;2.70;;;;;;;4.93;nan;99885.38;10409307;28;20124;-83
2022/01/09 10:49:37;;;;;;;8.80;2.30;;;;;;;5.13;nan;99897.03;10433719;28;20045;-84
2022/01/09 10:54:41;;;;;;;14.23;3.00;;;;;;;5.36;nan;99898.63;10397976;28;20045;-84
2022/01/09 10:59:44;;;;;;;15.95;3.42;;;;;;;5.20;nan;99898.97;10414660;28;20042;-84
2022/01/09 11:04:48;;;;;;;8.57;2.60;;;;;;;5.39;nan;99901.31;10412598;28;20037;-84
2022/01/09 11:09:51;;;;;;;11.75;2.60;;;;;;;5.39;nan;99915.75;10412206;28;20492;-83
2022/01/09 11:14:53;;;;;;;10.77;2.55;;;;;;;5.14;nan;99929.44;10437227;28;20041;-83
2022/01/09 11:19:55;;;;;;;9.68;2.83;;;;;;;5.18;nan;99937.25;10390478;28;20051;-84
2022/01/09 11:25:22;;;;;;;12.85;2.17;;;;;;;5.26;nan;99942.56;10427758;28;20034;-83
2022/01/09 11:30:36;;;;;;;10.48;2.78;;;;;;;5.37;nan;99948.91;10423404;28;20107;-83
2022/01/09 11:35:56;;;;;;;11.00;2.17;;;;;;;5.63;nan;99950.53;10408606;28;20453;-82
2022/01/09 11:41:17;;;;;;;16.00;2.40;;;;;;;5.70;nan;99952.47;10419932;28;20041;-82
2022/01/09 11:46:20;;;;;;;11.07;2.13;;;;;;;5.66;nan;99965.97;10399703;28;20055;-82
2022/01/09 11:51:26;;;;;;;15.05;2.30;;;;;;;5.85;nan;99967.38;10393580;28;20060;-82
2022/01/09 11:56:55;;;;;;;8.75;2.08;;;;;;;5.81;nan;99965.56;10394865;28;20069;-83
2022/01/09 12:02:15;;;;;;;14.45;2.92;;;;;;;6.40;nan;99978.38;10402937;28;20137;-83
2022/01/09 12:07:33;;;;;;;17.67;2.65;;;;;;;6.53;nan;99979.56;10413527;28;20100;-83
2022/01/09 12:12:36;;;;;;;16.05;2.40;;;;;;;6.17;nan;99970.03;10378368;28;20068;-83
2022/01/09 12:17:43;;;;;;;11.60;2.40;;;;;;;6.03;nan;99985.84;10412755;28;20049;-83
2022/01/09 12:22:51;;;;;;;15.30;2.92;;;;;;;6.17;nan;99990.50;10382867;28;20493;-83
2022/01/09 12:28:18;;;;;;;9.95;3.25;;;;;;;6.53;nan;99999.19;10407949;28;20045;-83
2022/01/09 12:33:31;;;;;;;16.13;3.05;;;;;;;6.30;nan;99995.16;10390792;28;20454;-83
2022/01/09 12:38:40;;;;;;;6.82;1.83;;;;;;;6.28;nan;99995.94;10426025;28;20037;-82
2022/01/09 12:43:42;;;;;;;16.25;2.53;;;;;;;6.05;nan;99993.56;10396374;28;20072;-84
2022/01/09 12:49:06;;;;;;;16.95;2.53;;;;;;;6.30;nan;100007.94;10425517;28;20060;-82
2022/01/09 12:54:09;;;;;;;13.85;2.28;;;;;;;6.54;nan;100006.91;10425602;28;20135;-82
2022/01/09 12:59:12;;;;;;;15.52;3.80;;;;;;;6.64;nan;100008.03;10395690;28;20056;-83
2022/01/09 13:04:18;;;;;;;10.18;1.55;;;;;;;6.44;nan;100013.47;10393881;28;20052;-82
2022/01/09 13:09:24;;;;;;;11.60;2.50;;;;;;;6.40;nan;100056.81;10410236;28;20076;-83
2022/01/09 13:14:29;;;;;;;1.45;0.85;;;;;;;4.03;nan;100070.13;10402194;28;20041;-86
2022/01/09 13:19:30;;;;;;;10.07;1.40;;;;;;;3.95;nan;100074.03;10427358;28;20049;-83
2022/01/09 13:24:43;;;;;;;6.55;1.33;;;;;;;3.91;nan;100077.28;10411524;28;20041;-82
2022/01/09 13:29:54;;;;;;;6.47;1.27;;;;;;;4.02;nan;100095.56;10409643;28;20773;-83
2022/01/09 13:34:56;;;;;;;8.50;1.30;;;;;;;3.90;nan;100093.38;10410843;28;20134;-85
2022/01/09 13:39:59;;;;;;;4.88;1.30;;;;;;;4.32;nan;100089.91;10409365;28;20041;-84
2022/01/09 13:45:05;;;;;;;8.27;2.15;;;;;;;4.53;nan;100088.16;10411070;28;20046;-84
2022/01/09 13:50:07;;;;;;;10.93;1.33;;;;;;;4.68;nan;100102.28;10399321;28;20053;-84
2022/01/09 13:55:21;;;;;;;7.50;1.35;;;;;;;4.73;nan;100096.50;10407759;28;20045;-84
2022/01/09 14:00:26;;;;;;;7.32;2.00;;;;;;;4.64;nan;100115.72;10381304;28;20411;-84
2022/01/09 14:05:34;;;;;;;6.35;1.60;;;;;;;4.60;nan;100119.84;10417295;28;20167;-85
2022/01/09 14:10:41;;;;;;;8.88;1.60;;;;;;;4.59;nan;100113.88;10431899;28;20152;-85
2022/01/09 14:15:45;;;;;;;2.28;1.10;;;;;;;4.49;nan;100122.00;10417827;28;20111;-84
2022/01/09 14:20:46;;;;;;;6.35;1.83;;;;;;;4.47;nan;100143.16;10379060;28;20045;-84
2022/01/09 14:25:48;;;;;;;10.75;1.60;;;;;;;4.43;nan;100143.03;10416907;28;20485;-85
2022/01/09 14:30:50;;;;;;;8.60;1.83;;;;;;;4.49;nan;100147.50;10412890;28;20050;-85
2022/01/09 14:36:05;;;;;;;7.57;1.90;;;;;;;4.42;nan;100151.50;10396491;28;20048;-85
2022/01/09 14:41:09;;;;;;;13.50;2.88;;;;;;;4.20;nan;100154.03;10400801;28;20520;-84
2022/01/09 14:46:13;;;;;;;8.73;2.58;;;;;;;4.13;nan;100163.97;10380544;28;20056;-85
2022/01/09 14:51:15;;;;;;;8.75;1.98;;;;;;;4.22;nan;100171.13;10435310;28;20041;-84
2022/01/09 14:56:21;;;;;;;10.50;1.95;;;;;;;4.09;nan;100179.97;10408894;28;20060;-84
2022/01/09 15:01:25;;;;;;;11.82;2.20;;;;;;;3.99;nan;100185.47;10394485;28;20045;-84
2022/01/09 15:06:27;;;;;;;4.80;1.27;;;;;;;4.04;nan;100201.84;10396885;28;20515;-84
2022/01/09 15:11:29;;;;;;;7.70;1.52;;;;;;;4.04;nan;100214.59;10396972;28;20049;-85
2022/01/09 15:16:31;;;;;;;5.05;1.77;;;;;;;4.15;nan;100211.59;10417502;28;20484;-84
2022/01/09 15:21:32;;;;;;;7.43;1.90;;;;;;;4.03;nan;100217.94;10412675;28;20045;-84
2022/01/09 15:26:34;;;;;;;7.28;1.80;;;;;;;3.96;nan;100221.06;10396173;28;20083;-84
2022/01/09 15:31:36;;;;;;;8.27;2.10;;;;;;;3.86;nan;100224.91;10395681;28;20090;-84
2022/01/09 15:36:38;;;;;;;9.52;2.55;;;;;;;3.79;nan;100244.13;10411958;28;20048;-84
2022/01/09 15:41:39;;;;;;;8.88;1.60;;;;;;;3.64;nan;100241.81;10410642;28;20057;-84
2022/01/09 15:46:41;;;;;;;8.43;1.88;;;;;;;3.76;nan;100250.78;10410891;28;20052;-84
2022/01/09 15:51:43;;;;;;;4.40;1.60;;;;;;;3.92;nan;100262.50;10394269;28;20046;-84
2022/01/09 15:56:44;;;;;;;12.25;1.98;;;;;;;3.89;nan;100272.56;10403848;28;20080;-84
2022/01/09 16:01:51;;;;;;;11.40;1.80;;;;;;;3.78;nan;100275.53;10424070;28;20072;-84
2022/01/09 16:06:57;;;;;;;5.90;1.65;;;;;;;3.79;nan;100284.91;10400795;28;20045;-84
2022/01/09 16:12:20;;;;;;;11.18;2.90;;;;;;;3.37;nan;100292.41;10402811;28;20063;-84
2022/01/09 16:17:22;;;;;;;11.68;2.22;;;;;;;3.31;nan;100304.88;10404003;28;20519;-85
2022/01/09 16:22:24;;;;;;;10.63;2.40;;;;;;;3.57;nan;100302.59;10406213;28;20409;-85
2022/01/09 16:27:26;;;;;;;10.00;2.45;;;;;;;3.58;nan;100299.25;10408954;28;20041;-85
2022/01/09 16:32:28;;;;;;;11.98;2.50;;;;;;;3.49;nan;100300.59;10405579;28;20125;-85
2022/01/09 16:37:30;;;;;;;15.98;3.22;;;;;;;3.71;nan;100314.28;10414656;28;20654;-85
2022/01/09 16:42:34;;;;;;;11.18;2.63;;;;;;;3.58;nan;100328.13;10409765;28;20095;-84
2022/01/09 16:47:36;;;;;;;8.98;3.30;;;;;;;3.59;nan;100331.56;10391641;28;20064;-85
2022/01/09 16:52:38;;;;;;;12.05;3.00;;;;;;;3.44;nan;100337.72;10375027;28;20037;-84
2022/01/09 16:57:40;;;;;;;15.68;4.13;;;;;;;3.57;nan;100348.44;10370452;28;20050;-84
2022/01/09 17:02:43;;;;;;;15.85;4.38;;;;;;;3.72;nan;100354.25;10407715;28;20041;-84
2022/01/09 17:07:45;;;;;;;18.55;4.55;;;;;;;3.72;nan;100359.34;10376331;28;20050;-85
2022/01/09 17:12:48;;;;;;;13.85;4.78;;;;;;;3.77;nan;100364.66;10407508;28;20057;-85
2022/01/09 17:17:54;;;;;;;12.15;4.20;;;;;;;3.73;nan;100384.00;10414724;28;20060;-85
2022/01/09 17:22:56;;;;;;;16.15;4.57;;;;;;;3.68;nan;100387.16;10384574;28;20037;-85
2022/01/09 17:28:00;;;;;;;22.17;4.97;;;;;;;3.52;nan;100391.53;10416861;28;20420;-84
2022/01/09 17:33:02;;;;;;;17.33;3.83;;;;;;;3.45;nan;100400.59;10400946;28;20041;-84
2022/01/09 17:38:05;;;;;;;17.95;4.10;;;;;;;3.10;nan;100419.28;10401089;28;20053;-85
2022/01/09 17:43:08;;;;;;;18.05;4.07;;;;;;;3.06;nan;100433.53;10400023;28;20049;-84
2022/01/09 17:48:09;;;;;;;16.73;4.88;;;;;;;3.09;nan;100438.75;10419493;28;20053;-84
2022/01/09 17:53:11;;;;;;;13.30;4.80;;;;;;;2.97;nan;100441.59;10400094;28;20045;-84
2022/01/09 17:58:13;;;;;;;22.75;5.00;;;;;;;3.08;nan;100449.75;10400612;28;20100;-85
2022/01/09 18:03:15;;;;;;;14.43;4.72;;;;;;;3.20;nan;100452.03;10383749;28;20393;-84
2022/01/09 18:08:20;;;;;;;20.08;5.00;;;;;;;3.14;nan;100460.25;10399152;28;20187;-84
2022/01/09 18:13:22;;;;;;;21.60;4.78;;;;;;;3.03;nan;100471.53;10431846;28;20443;-85
2022/01/09 18:18:23;;;;;;;19.08;5.22;;;;;;;2.93;nan;100475.31;10431853;28;20409;-85
2022/01/09 18:23:25;;;;;;;22.13;5.32;;;;;;;2.88;nan;100493.69;10408450;28;20047;-84
2022/01/09 18:28:27;;;;;;;22.50;4.97;;;;;;;2.75;nan;100505.78;10425432;28;20056;-85
2022/01/09 18:33:29;;;;;;;21.00;6.18;;;;;;;2.67;nan;100507.06;10427732;28;20135;-85
2022/01/09 18:38:31;;;;;;;21.60;5.53;;;;;;;2.66;nan;100510.41;10413985;28;20044;-84
2022/01/09 18:43:33;;;;;;;23.38;5.35;;;;;;;2.58;nan;100526.94;10433576;28;20063;-85
2022/01/09 18:48:38;;;;;;;21.10;5.68;;;;;;;2.50;nan;100527.41;10429477;28;20103;-84
2022/01/09 18:53:40;;;;;;;17.95;5.55;;;;;;;2.41;nan;100534.56;10415636;28;20509;-85
2022/01/09 18:58:41;;;;;;;19.42;5.00;;;;;;;2.37;nan;100545.34;10414923;28;20480;-85
2022/01/09 19:03:44;;;;;;;19.52;5.30;;;;;;;2.22;nan;100559.00;10395857;28;20048;-85
2022/01/09 19:08:46;;;;;;;19.33;5.05;;;;;;;2.05;nan;100567.34;10380049;28;20041;-85
2022/01/09 19:13:48;;;;;;;19.73;5.28;;;;;;;2.12;nan;100582.19;10378770;28;20038;-85
2022/01/09 19:18:50;;;;;;;15.82;4.32;;;;;;;1.99;nan;100594.97;10378187;28;20053;-84
2022/01/09 19:23:52;;;;;;;20.50;4.90;;;;;;;2.12;nan;100599.97;10396174;28;20442;-85
2022/01/09 19:28:54;;;;;;;17.35;4.90;;;;;;;2.09;nan;100612.50;10399110;28;20045;-84
2022/01/09 19:34:03;;;;;;;17.45;5.07;;;;;;;2.17;nan;100621.41;10435291;28;20041;-84
2022/01/09 19:39:08;;;;;;;22.25;4.55;;;;;;;2.09;nan;100627.75;10432252;28;20096;-85
2022/01/09 19:44:19;;;;;;;21.88;4.70;;;;;;;2.07;nan;100634.41;10429825;28;20488;-84
2022/01/09 19:49:26;;;;;;;20.25;4.90;;;;;;;1.98;nan;100649.13;10395031;28;20041;-84
2022/01/09 19:54:31;;;;;;;16.20;4.68;;;;;;;1.69;nan;100661.03;10395588;28;20038;-83
2022/01/09 19:59:36;;;;;;;24.90;8.13;;;;;;;1.71;nan;100664.56;10378952;28;20042;-84
2022/01/09 20:04:38;;;;;;;49.97;15.48;;;;;;;1.54;nan;100679.69;10429491;28;20052;-83
2022/01/09 20:09:40;;;;;;;28.77;8.90;;;;;;;1.49;nan;100683.63;10382490;28;20090;-83
2022/01/09 20:14:42;;;;;;;24.30;7.78;;;;;;;1.43;nan;100694.28;10417103;28;20049;-83
2022/01/09 20:19:45;;;;;;;25.13;7.32;;;;;;;1.41;nan;100700.06;10415609;28;20053;-83
2022/01/09 20:24:46;;;;;;;29.23;8.70;;;;;;;1.37;nan;100700.66;10400502;28;20083;-83
2022/01/09 20:29:48;;;;;;;22.65;8.38;;;;;;;1.47;nan;100720.72;10381395;28;20057;-83
2022/01/09 20:34:50;;;;;;;31.55;7.85;;;;;;;1.49;nan;100718.31;10400121;28;20042;-83
2022/01/09 20:39:52;;;;;;;26.33;8.57;;;;;;;1.23;nan;100736.22;10396988;28;20042;-83
2022/01/09 20:44:54;;;;;;;25.95;7.53;;;;;;;1.19;nan;100739.38;10413760;28;20504;-83
2022/01/09 20:49:56;;;;;;;24.80;8.30;;;;;;;1.11;nan;100735.47;10387753;28;20111;-83
2022/01/09 20:54:59;;;;;;;29.50;8.15;;;;;;;1.17;nan;100745.16;10395277;28;20045;-83
2022/01/09 21:00:02;;;;;;;25.60;8.20;;;;;;;1.10;nan;100756.56;10401585;28;20080;-85
2022/01/09 21:05:04;;;;;;;28.00;8.02;;;;;;;1.15;nan;100762.81;10377575;28;20136;-85
2022/01/09 21:10:06;;;;;;;38.65;8.27;;;;;;;1.19;nan;100763.88;10393210;28;20049;-85
2022/01/09 21:15:08;;;;;;;23.80;7.88;;;;;;;1.11;nan;100771.00;10393520;28;20048;-85
2022/01/09 21:20:10;;;;;;;30.48;8.30;;;;;;;0.84;nan;100781.19;10409527;28;20219;-85
2022/01/09 21:25:13;;;;;;;26.95;9.02;;;;;;;0.74;nan;100794.06;10393268;28;20068;-85
2022/01/09 21:30:15;;;;;;;24.60;8.35;;;;;;;0.76;nan;100797.59;10425920;28;20041;-85
2022/01/09 21:35:17;;;;;;;26.00;7.93;;;;;;;0.76;nan;100807.72;10376794;28;20056;-85
2022/01/09 21:40:19;;;;;;;38.38;8.93;;;;;;;0.77;nan;100817.09;10392785;28;20137;-85
2022/01/09 21:45:21;;;;;;;21.63;7.78;;;;;;;0.87;nan;100834.66;10393606;28;20476;-85
2022/01/09 21:50:23;;;;;;;34.90;8.80;;;;;;;0.71;nan;100835.34;10392540;28;20135;-85
2022/01/09 21:55:26;;;;;;;20.98;8.32;;;;;;;0.73;nan;100848.09;10393271;28;20127;-85
2022/01/09 22:00:29;;;;;;;29.15;8.63;;;;;;;0.83;nan;100853.00;10408332;28;20072;-85
2022/01/09 22:05:31;;;;;;;29.95;8.60;;;;;;;0.93;nan;100860.41;10395034;28;20059;-85
2022/01/09 22:10:36;;;;;;;31.52;9.10;;;;;;;0.78;nan;100872.13;10413296;28;20037;-85
2022/01/09 22:15:41;;;;;;;33.30;8.95;;;;;;;0.69;nan;100886.72;10414858;28;20077;-85
2022/01/09 22:20:43;;;;;;;23.55;8.27;;;;;;;0.78;nan;100892.41;10396131;28;20307;-85
2022/01/09 22:25:45;;;;;;;32.85;8.45;;;;;;;0.58;nan;100894.50;10392020;28;20068;-84
2022/01/09 22:30:47;;;;;;;31.52;9.57;;;;;;;0.62;nan;100906.63;10450484;28;20051;-84
2022/01/09 22:36:04;;;;;;;28.83;8.73;;;;;;;0.75;nan;100915.03;10408619;28;20051;-84
2022/01/09 22:41:27;;;;;;;34.83;9.55;;;;;;;0.75;nan;100923.50;10427828;28;20049;-84
2022/01/09 22:46:28;;;;;;;31.05;9.43;;;;;;;0.79;nan;100924.56;10371894;28;20124;-84
2022/01/09 22:51:30;;;;;;;33.75;9.57;;;;;;;0.78;nan;100933.00;10442776;28;20456;-84
2022/01/09 22:56:34;;;;;;;27.20;9.45;;;;;;;0.79;nan;100947.41;10433076;28;20472;-85
2022/01/09 23:01:37;;;;;;;31.52;9.45;;;;;;;0.84;nan;100953.69;10428557;28;20049;-85
2022/01/09 23:06:39;;;;;;;26.42;9.98;;;;;;;0.74;nan;100966.50;10399883;28;20042;-84
2022/01/09 23:11:40;;;;;;;35.70;10.82;;;;;;;0.70;nan;100964.56;10419745;28;20072;-83
2022/01/09 23:16:42;;;;;;;25.92;9.75;;;;;;;0.62;nan;100972.53;10403382;28;20084;-84
2022/01/09 23:22:07;;;;;;;29.50;9.25;;;;;;;0.73;nan;100979.97;10378862;28;20069;-84
2022/01/09 23:27:49;;;;;;;28.30;8.20;;;;;;;0.47;nan;100986.72;10402038;28;20045;-84
2022/01/09 23:32:51;;;;;;;22.13;7.72;;;;;;;0.45;nan;100993.31;10413826;28;20115;-84
2022/01/09 23:37:52;;;;;;;29.88;7.97;;;;;;;0.27;nan;100998.88;10412739;28;20559;-84
2022/01/09 23:42:54;;;;;;;21.17;8.57;;;;;;;0.39;nan;101003.06;10428900;28;20072;-84
2022/01/09 23:48:12;;;;;;;23.00;7.40;;;;;;;0.33;nan;101003.50;10413866;28;20096;-84
2022/01/09 23:53:14;;;;;;;25.83;7.57;;;;;;;0.30;nan;101016.84;10403757;28;20073;-84
2022/01/09 23:58:21;;;;;;;28.70;8.27;;;;;;;0.37;nan;101030.84;10414055;28;20068;-84
